sensor_id;sensor_type;location;lat;lon;timestamp;P1;durP1;ratioP1;P2;durP2;ratioP2
69005;SDS011;56061;51.748;19.620;2023-04-07T00:01:18;13.00;;;7.60;;
69005;SDS011;56061;51.748;19.620;2023-04-07T00:03:45;12.30;;;7.00;;
69005;SDS011;56061;51.748;19.620;2023-04-07T00:06:12;12.70;;;6.20;;
69005;SDS011;56061;51.748;19.620;2023-04-07T00:08:38;12.00;;;6.70;;
69005;SDS011;56061;51.748;19.620;2023-04-07T00:11:05;11.50;;;5.50;;
69005;SDS011;56061;51.748;19.620;2023-04-07T00:13:31;12.60;;;7.70;;
69005;SDS011;56061;51.748;19.620;2023-04-07T00:15:58;11.70;;;6.50;;
69005;SDS011;56061;51.748;19.620;2023-04-07T00:18:24;12.30;;;7.20;;
69005;SDS011;56061;51.748;19.620;2023-04-07T00:20:51;12.50;;;6.70;;
69005;SDS011;56061;51.748;19.620;2023-04-07T00:23:17;10.20;;;5.90;;
69005;SDS011;56061;51.748;19.620;2023-04-07T00:25:47;14.40;;;7.60;;
69005;SDS011;56061;51.748;19.620;2023-04-07T00:28:14;11.40;;;6.20;;
69005;SDS011;56061;51.748;19.620;2023-04-07T00:30:40;14.20;;;7.40;;
69005;SDS011;56061;51.748;19.620;2023-04-07T00:33:06;13.00;;;7.60;;
69005;SDS011;56061;51.748;19.620;2023-04-07T00:35:35;12.50;;;6.50;;
69005;SDS011;56061;51.748;19.620;2023-04-07T00:38:01;11.80;;;6.90;;
69005;SDS011;56061;51.748;19.620;2023-04-07T00:40:28;12.30;;;7.00;;
69005;SDS011;56061;51.748;19.620;2023-04-07T00:42:55;11.90;;;6.70;;
69005;SDS011;56061;51.748;19.620;2023-04-07T00:45:21;12.00;;;7.20;;
69005;SDS011;56061;51.748;19.620;2023-04-07T00:47:48;13.50;;;7.40;;
69005;SDS011;56061;51.748;19.620;2023-04-07T00:50:14;14.40;;;6.70;;
69005;SDS011;56061;51.748;19.620;2023-04-07T00:52:41;14.20;;;8.10;;
69005;SDS011;56061;51.748;19.620;2023-04-07T00:55:08;12.90;;;7.10;;
69005;SDS011;56061;51.748;19.620;2023-04-07T00:57:34;13.40;;;7.50;;
69005;SDS011;56061;51.748;19.620;2023-04-07T01:00:01;10.50;;;5.20;;
69005;SDS011;56061;51.748;19.620;2023-04-07T01:02:46;10.60;;;5.20;;
69005;SDS011;56061;51.748;19.620;2023-04-07T01:05:25;10.50;;;5.20;;
69005;SDS011;56061;51.748;19.620;2023-04-07T01:13:53;9.40;;;5.50;;
69005;SDS011;56061;51.748;19.620;2023-04-07T01:16:30;11.00;;;6.20;;
69005;SDS011;56061;51.748;19.620;2023-04-07T01:19:07;9.40;;;5.00;;
69005;SDS011;56061;51.748;19.620;2023-04-07T01:21:43;10.40;;;5.90;;
69005;SDS011;56061;51.748;19.620;2023-04-07T01:24:37;10.70;;;5.80;;
69005;SDS011;56061;51.748;19.620;2023-04-07T01:27:57;11.10;;;5.90;;
69005;SDS011;56061;51.748;19.620;2023-04-07T01:30:10;11.80;;;6.30;;
69005;SDS011;56061;51.748;19.620;2023-04-07T01:32:39;9.30;;;5.10;;
69005;SDS011;56061;51.748;19.620;2023-04-07T01:35:11;10.10;;;5.00;;
69005;SDS011;56061;51.748;19.620;2023-04-07T01:37:39;11.20;;;6.40;;
69005;SDS011;56061;51.748;19.620;2023-04-07T01:40:07;10.40;;;5.50;;
69005;SDS011;56061;51.748;19.620;2023-04-07T01:42:36;11.70;;;6.60;;
69005;SDS011;56061;51.748;19.620;2023-04-07T01:45:05;11.20;;;6.50;;
69005;SDS011;56061;51.748;19.620;2023-04-07T01:47:34;10.00;;;4.60;;
69005;SDS011;56061;51.748;19.620;2023-04-07T01:50:03;12.90;;;6.40;;
69005;SDS011;56061;51.748;19.620;2023-04-07T01:52:32;13.50;;;7.10;;
69005;SDS011;56061;51.748;19.620;2023-04-07T01:55:01;14.00;;;6.90;;
69005;SDS011;56061;51.748;19.620;2023-04-07T01:57:29;14.40;;;7.60;;
69005;SDS011;56061;51.748;19.620;2023-04-07T01:59:55;11.30;;;6.80;;
69005;SDS011;56061;51.748;19.620;2023-04-07T02:02:22;13.50;;;6.80;;
69005;SDS011;56061;51.748;19.620;2023-04-07T02:04:54;14.80;;;7.80;;
69005;SDS011;56061;51.748;19.620;2023-04-07T02:13:07;11.30;;;5.50;;
69005;SDS011;56061;51.748;19.620;2023-04-07T02:15:39;16.00;;;8.00;;
69005;SDS011;56061;51.748;19.620;2023-04-07T02:18:07;15.90;;;8.70;;
69005;SDS011;56061;51.748;19.620;2023-04-07T02:20:36;15.40;;;7.90;;
69005;SDS011;56061;51.748;19.620;2023-04-07T02:23:03;16.60;;;9.40;;
69005;SDS011;56061;51.748;19.620;2023-04-07T02:25:31;11.90;;;6.50;;
69005;SDS011;56061;51.748;19.620;2023-04-07T02:27:59;14.80;;;7.90;;
69005;SDS011;56061;51.748;19.620;2023-04-07T02:30:26;15.30;;;6.30;;
69005;SDS011;56061;51.748;19.620;2023-04-07T02:32:53;15.40;;;8.10;;
69005;SDS011;56061;51.748;19.620;2023-04-07T02:35:20;12.40;;;6.60;;
69005;SDS011;56061;51.748;19.620;2023-04-07T02:37:47;16.40;;;8.10;;
69005;SDS011;56061;51.748;19.620;2023-04-07T02:40:13;15.50;;;7.80;;
69005;SDS011;56061;51.748;19.620;2023-04-07T02:42:41;14.40;;;8.30;;
69005;SDS011;56061;51.748;19.620;2023-04-07T02:45:08;15.60;;;8.80;;
69005;SDS011;56061;51.748;19.620;2023-04-07T02:47:37;13.80;;;7.50;;
69005;SDS011;56061;51.748;19.620;2023-04-07T02:50:05;13.20;;;7.30;;
69005;SDS011;56061;51.748;19.620;2023-04-07T02:52:32;12.90;;;6.70;;
69005;SDS011;56061;51.748;19.620;2023-04-07T02:54:58;12.60;;;6.10;;
69005;SDS011;56061;51.748;19.620;2023-04-07T02:57:26;14.20;;;7.70;;
69005;SDS011;56061;51.748;19.620;2023-04-07T02:59:52;12.90;;;7.10;;
69005;SDS011;56061;51.748;19.620;2023-04-07T03:02:21;13.90;;;7.10;;
69005;SDS011;56061;51.748;19.620;2023-04-07T03:04:48;12.90;;;7.10;;
69005;SDS011;56061;51.748;19.620;2023-04-07T03:07:16;10.80;;;5.40;;
69005;SDS011;56061;51.748;19.620;2023-04-07T03:09:43;13.90;;;7.50;;
69005;SDS011;56061;51.748;19.620;2023-04-07T03:12:09;12.90;;;6.90;;
69005;SDS011;56061;51.748;19.620;2023-04-07T03:14:36;13.20;;;7.40;;
69005;SDS011;56061;51.748;19.620;2023-04-07T03:17:04;13.10;;;6.50;;
69005;SDS011;56061;51.748;19.620;2023-04-07T03:19:31;13.60;;;7.00;;
69005;SDS011;56061;51.748;19.620;2023-04-07T03:21:57;13.60;;;6.30;;
69005;SDS011;56061;51.748;19.620;2023-04-07T03:24:24;13.50;;;7.20;;
69005;SDS011;56061;51.748;19.620;2023-04-07T03:26:50;12.60;;;7.40;;
69005;SDS011;56061;51.748;19.620;2023-04-07T03:29:18;12.60;;;6.60;;
69005;SDS011;56061;51.748;19.620;2023-04-07T03:31:44;13.70;;;7.30;;
69005;SDS011;56061;51.748;19.620;2023-04-07T03:34:12;11.80;;;6.10;;
69005;SDS011;56061;51.748;19.620;2023-04-07T03:36:38;13.60;;;7.30;;
69005;SDS011;56061;51.748;19.620;2023-04-07T03:39:05;12.30;;;6.00;;
69005;SDS011;56061;51.748;19.620;2023-04-07T03:41:31;13.70;;;7.00;;
69005;SDS011;56061;51.748;19.620;2023-04-07T03:43:58;11.10;;;5.30;;
69005;SDS011;56061;51.748;19.620;2023-04-07T03:46:25;12.20;;;7.10;;
69005;SDS011;56061;51.748;19.620;2023-04-07T03:48:52;11.70;;;6.00;;
69005;SDS011;56061;51.748;19.620;2023-04-07T03:51:19;13.00;;;6.90;;
69005;SDS011;56061;51.748;19.620;2023-04-07T03:53:45;13.80;;;7.30;;
69005;SDS011;56061;51.748;19.620;2023-04-07T03:56:12;11.70;;;6.30;;
69005;SDS011;56061;51.748;19.620;2023-04-07T03:58:39;13.60;;;7.60;;
69005;SDS011;56061;51.748;19.620;2023-04-07T04:01:07;15.00;;;8.30;;
69005;SDS011;56061;51.748;19.620;2023-04-07T04:03:34;13.80;;;7.60;;
69005;SDS011;56061;51.748;19.620;2023-04-07T04:06:01;13.80;;;7.40;;
69005;SDS011;56061;51.748;19.620;2023-04-07T04:08:28;12.70;;;6.60;;
69005;SDS011;56061;51.748;19.620;2023-04-07T04:10:54;14.30;;;7.80;;
69005;SDS011;56061;51.748;19.620;2023-04-07T04:13:21;14.90;;;7.90;;
69005;SDS011;56061;51.748;19.620;2023-04-07T04:15:47;14.90;;;7.70;;
69005;SDS011;56061;51.748;19.620;2023-04-07T04:18:13;16.50;;;9.20;;
69005;SDS011;56061;51.748;19.620;2023-04-07T04:20:41;15.70;;;7.80;;
69005;SDS011;56061;51.748;19.620;2023-04-07T04:23:08;15.60;;;7.90;;
69005;SDS011;56061;51.748;19.620;2023-04-07T04:25:34;15.40;;;7.90;;
69005;SDS011;56061;51.748;19.620;2023-04-07T04:28:01;12.30;;;6.40;;
69005;SDS011;56061;51.748;19.620;2023-04-07T04:30:27;16.00;;;8.50;;
69005;SDS011;56061;51.748;19.620;2023-04-07T04:32:54;14.20;;;7.70;;
69005;SDS011;56061;51.748;19.620;2023-04-07T04:35:20;13.40;;;6.70;;
69005;SDS011;56061;51.748;19.620;2023-04-07T04:37:47;13.40;;;7.20;;
69005;SDS011;56061;51.748;19.620;2023-04-07T04:40:13;15.10;;;8.30;;
69005;SDS011;56061;51.748;19.620;2023-04-07T04:42:40;12.80;;;7.20;;
69005;SDS011;56061;51.748;19.620;2023-04-07T04:45:07;13.30;;;7.70;;
69005;SDS011;56061;51.748;19.620;2023-04-07T04:47:34;13.80;;;7.00;;
69005;SDS011;56061;51.748;19.620;2023-04-07T04:50:00;14.10;;;7.00;;
69005;SDS011;56061;51.748;19.620;2023-04-07T04:52:27;14.30;;;7.60;;
69005;SDS011;56061;51.748;19.620;2023-04-07T04:54:54;15.80;;;8.40;;
69005;SDS011;56061;51.748;19.620;2023-04-07T04:57:20;12.80;;;5.90;;
69005;SDS011;56061;51.748;19.620;2023-04-07T04:59:47;16.80;;;9.30;;
69005;SDS011;56061;51.748;19.620;2023-04-07T05:02:13;12.90;;;6.60;;
69005;SDS011;56061;51.748;19.620;2023-04-07T05:04:40;14.70;;;7.70;;
69005;SDS011;56061;51.748;19.620;2023-04-07T05:07:06;14.30;;;7.30;;
69005;SDS011;56061;51.748;19.620;2023-04-07T05:09:33;13.00;;;7.30;;
69005;SDS011;56061;51.748;19.620;2023-04-07T05:11:59;12.90;;;7.20;;
69005;SDS011;56061;51.748;19.620;2023-04-07T05:14:27;13.20;;;7.20;;
69005;SDS011;56061;51.748;19.620;2023-04-07T05:16:54;15.00;;;7.60;;
69005;SDS011;56061;51.748;19.620;2023-04-07T05:19:20;15.40;;;8.10;;
69005;SDS011;56061;51.748;19.620;2023-04-07T05:21:47;15.90;;;7.60;;
69005;SDS011;56061;51.748;19.620;2023-04-07T05:24:13;13.40;;;5.50;;
69005;SDS011;56061;51.748;19.620;2023-04-07T05:26:40;14.70;;;7.60;;
69005;SDS011;56061;51.748;19.620;2023-04-07T05:29:06;14.00;;;7.40;;
69005;SDS011;56061;51.748;19.620;2023-04-07T05:31:32;14.40;;;7.40;;
69005;SDS011;56061;51.748;19.620;2023-04-07T05:34:02;13.30;;;6.60;;
69005;SDS011;56061;51.748;19.620;2023-04-07T05:36:29;13.70;;;7.90;;
69005;SDS011;56061;51.748;19.620;2023-04-07T05:38:56;14.10;;;7.70;;
69005;SDS011;56061;51.748;19.620;2023-04-07T05:41:23;14.80;;;7.50;;
69005;SDS011;56061;51.748;19.620;2023-04-07T05:43:49;15.10;;;8.30;;
69005;SDS011;56061;51.748;19.620;2023-04-07T05:46:16;13.60;;;5.80;;
69005;SDS011;56061;51.748;19.620;2023-04-07T05:48:42;13.60;;;7.50;;
69005;SDS011;56061;51.748;19.620;2023-04-07T05:51:09;13.20;;;6.60;;
69005;SDS011;56061;51.748;19.620;2023-04-07T05:53:35;13.80;;;7.20;;
69005;SDS011;56061;51.748;19.620;2023-04-07T05:56:02;12.80;;;6.60;;
69005;SDS011;56061;51.748;19.620;2023-04-07T05:58:28;14.30;;;7.00;;
69005;SDS011;56061;51.748;19.620;2023-04-07T06:00:55;12.20;;;6.20;;
69005;SDS011;56061;51.748;19.620;2023-04-07T06:03:22;13.00;;;6.20;;
69005;SDS011;56061;51.748;19.620;2023-04-07T06:05:48;12.30;;;6.10;;
69005;SDS011;56061;51.748;19.620;2023-04-07T06:08:15;15.60;;;7.50;;
69005;SDS011;56061;51.748;19.620;2023-04-07T06:10:41;15.20;;;7.40;;
69005;SDS011;56061;51.748;19.620;2023-04-07T06:13:09;12.00;;;6.40;;
69005;SDS011;56061;51.748;19.620;2023-04-07T06:15:36;14.80;;;7.60;;
69005;SDS011;56061;51.748;19.620;2023-04-07T06:18:02;15.20;;;7.70;;
69005;SDS011;56061;51.748;19.620;2023-04-07T06:20:29;13.40;;;7.10;;
69005;SDS011;56061;51.748;19.620;2023-04-07T06:22:56;15.70;;;7.30;;
69005;SDS011;56061;51.748;19.620;2023-04-07T06:25:25;12.50;;;6.80;;
69005;SDS011;56061;51.748;19.620;2023-04-07T06:27:53;13.90;;;6.50;;
69005;SDS011;56061;51.748;19.620;2023-04-07T06:30:19;16.00;;;7.60;;
69005;SDS011;56061;51.748;19.620;2023-04-07T06:32:46;15.60;;;8.30;;
69005;SDS011;56061;51.748;19.620;2023-04-07T06:35:13;14.40;;;7.40;;
69005;SDS011;56061;51.748;19.620;2023-04-07T06:37:40;16.60;;;8.50;;
69005;SDS011;56061;51.748;19.620;2023-04-07T06:40:07;15.80;;;8.00;;
69005;SDS011;56061;51.748;19.620;2023-04-07T06:42:33;12.40;;;7.00;;
69005;SDS011;56061;51.748;19.620;2023-04-07T06:45:00;11.90;;;6.10;;
69005;SDS011;56061;51.748;19.620;2023-04-07T06:47:26;13.20;;;7.20;;
69005;SDS011;56061;51.748;19.620;2023-04-07T06:49:53;11.70;;;6.00;;
69005;SDS011;56061;51.748;19.620;2023-04-07T06:52:20;13.30;;;6.90;;
69005;SDS011;56061;51.748;19.620;2023-04-07T06:54:47;16.50;;;8.00;;
69005;SDS011;56061;51.748;19.620;2023-04-07T06:57:14;15.60;;;7.40;;
69005;SDS011;56061;51.748;19.620;2023-04-07T06:59:40;14.60;;;8.10;;
69005;SDS011;56061;51.748;19.620;2023-04-07T07:02:07;15.80;;;8.20;;
69005;SDS011;56061;51.748;19.620;2023-04-07T07:04:34;15.60;;;8.20;;
69005;SDS011;56061;51.748;19.620;2023-04-07T07:07:01;14.00;;;7.50;;
69005;SDS011;56061;51.748;19.620;2023-04-07T07:09:28;15.60;;;7.90;;
69005;SDS011;56061;51.748;19.620;2023-04-07T07:11:54;16.40;;;8.20;;
69005;SDS011;56061;51.748;19.620;2023-04-07T07:14:21;15.30;;;8.80;;
69005;SDS011;56061;51.748;19.620;2023-04-07T07:16:47;14.30;;;7.40;;
69005;SDS011;56061;51.748;19.620;2023-04-07T07:19:14;11.70;;;6.20;;
69005;SDS011;56061;51.748;19.620;2023-04-07T07:21:41;15.00;;;8.30;;
69005;SDS011;56061;51.748;19.620;2023-04-07T07:24:07;16.60;;;8.10;;
69005;SDS011;56061;51.748;19.620;2023-04-07T07:26:33;14.50;;;8.00;;
69005;SDS011;56061;51.748;19.620;2023-04-07T07:29:00;16.00;;;8.30;;
69005;SDS011;56061;51.748;19.620;2023-04-07T07:31:27;13.50;;;6.40;;
69005;SDS011;56061;51.748;19.620;2023-04-07T07:33:53;12.90;;;6.80;;
69005;SDS011;56061;51.748;19.620;2023-04-07T07:36:20;16.70;;;8.60;;
69005;SDS011;56061;51.748;19.620;2023-04-07T07:38:49;14.80;;;7.90;;
69005;SDS011;56061;51.748;19.620;2023-04-07T07:41:16;15.60;;;8.20;;
69005;SDS011;56061;51.748;19.620;2023-04-07T07:43:43;15.90;;;8.40;;
69005;SDS011;56061;51.748;19.620;2023-04-07T07:46:09;16.40;;;8.70;;
69005;SDS011;56061;51.748;19.620;2023-04-07T07:48:36;14.80;;;7.60;;
69005;SDS011;56061;51.748;19.620;2023-04-07T07:51:03;14.50;;;7.90;;
69005;SDS011;56061;51.748;19.620;2023-04-07T07:53:30;13.20;;;7.30;;
69005;SDS011;56061;51.748;19.620;2023-04-07T07:55:56;14.50;;;7.50;;
69005;SDS011;56061;51.748;19.620;2023-04-07T07:58:23;14.70;;;7.30;;
69005;SDS011;56061;51.748;19.620;2023-04-07T08:00:50;15.50;;;8.00;;
69005;SDS011;56061;51.748;19.620;2023-04-07T08:03:17;15.10;;;7.40;;
69005;SDS011;56061;51.748;19.620;2023-04-07T08:05:46;14.20;;;6.80;;
69005;SDS011;56061;51.748;19.620;2023-04-07T08:08:14;15.90;;;8.10;;
69005;SDS011;56061;51.748;19.620;2023-04-07T08:10:40;14.30;;;7.80;;
69005;SDS011;56061;51.748;19.620;2023-04-07T08:13:07;13.70;;;7.20;;
69005;SDS011;56061;51.748;19.620;2023-04-07T08:15:33;14.20;;;7.40;;
69005;SDS011;56061;51.748;19.620;2023-04-07T08:18:00;15.70;;;7.70;;
69005;SDS011;56061;51.748;19.620;2023-04-07T08:20:30;13.30;;;6.90;;
69005;SDS011;56061;51.748;19.620;2023-04-07T08:22:58;13.80;;;6.70;;
69005;SDS011;56061;51.748;19.620;2023-04-07T08:25:27;14.30;;;8.00;;
69005;SDS011;56061;51.748;19.620;2023-04-07T08:27:54;15.60;;;8.80;;
69005;SDS011;56061;51.748;19.620;2023-04-07T08:30:21;14.10;;;7.80;;
69005;SDS011;56061;51.748;19.620;2023-04-07T08:32:48;16.80;;;8.60;;
69005;SDS011;56061;51.748;19.620;2023-04-07T08:35:14;16.20;;;8.80;;
69005;SDS011;56061;51.748;19.620;2023-04-07T08:37:41;14.60;;;8.00;;
69005;SDS011;56061;51.748;19.620;2023-04-07T08:40:10;14.10;;;7.20;;
69005;SDS011;56061;51.748;19.620;2023-04-07T08:42:41;12.80;;;6.90;;
69005;SDS011;56061;51.748;19.620;2023-04-07T08:45:12;14.20;;;7.40;;
69005;SDS011;56061;51.748;19.620;2023-04-07T08:47:39;13.30;;;7.30;;
69005;SDS011;56061;51.748;19.620;2023-04-07T08:50:10;14.90;;;8.00;;
69005;SDS011;56061;51.748;19.620;2023-04-07T08:52:41;13.40;;;7.20;;
69005;SDS011;56061;51.748;19.620;2023-04-07T08:55:11;14.50;;;8.20;;
69005;SDS011;56061;51.748;19.620;2023-04-07T08:57:38;16.90;;;7.70;;
69005;SDS011;56061;51.748;19.620;2023-04-07T09:00:06;14.50;;;7.70;;
69005;SDS011;56061;51.748;19.620;2023-04-07T09:02:36;17.20;;;7.80;;
69005;SDS011;56061;51.748;19.620;2023-04-07T09:05:06;13.10;;;6.90;;
69005;SDS011;56061;51.748;19.620;2023-04-07T09:07:35;13.60;;;6.80;;
69005;SDS011;56061;51.748;19.620;2023-04-07T09:10:03;14.50;;;7.20;;
69005;SDS011;56061;51.748;19.620;2023-04-07T09:12:31;12.60;;;6.70;;
69005;SDS011;56061;51.748;19.620;2023-04-07T09:14:58;13.40;;;6.00;;
69005;SDS011;56061;51.748;19.620;2023-04-07T09:17:26;15.20;;;8.00;;
69005;SDS011;56061;51.748;19.620;2023-04-07T09:19:58;14.70;;;8.00;;
69005;SDS011;56061;51.748;19.620;2023-04-07T09:22:43;13.50;;;7.40;;
69005;SDS011;56061;51.748;19.620;2023-04-07T09:28:04;16.30;;;7.40;;
69005;SDS011;56061;51.748;19.620;2023-04-07T09:30:32;17.30;;;9.10;;
69005;SDS011;56061;51.748;19.620;2023-04-07T09:33:00;15.10;;;7.20;;
69005;SDS011;56061;51.748;19.620;2023-04-07T09:35:27;18.70;;;9.60;;
69005;SDS011;56061;51.748;19.620;2023-04-07T09:38:03;18.10;;;9.60;;
69005;SDS011;56061;51.748;19.620;2023-04-07T09:40:32;17.90;;;9.20;;
69005;SDS011;56061;51.748;19.620;2023-04-07T09:43:01;18.50;;;9.70;;
69005;SDS011;56061;51.748;19.620;2023-04-07T09:45:30;16.00;;;9.00;;
69005;SDS011;56061;51.748;19.620;2023-04-07T09:48:05;19.80;;;10.10;;
69005;SDS011;56061;51.748;19.620;2023-04-07T09:50:39;18.80;;;9.60;;
69005;SDS011;56061;51.748;19.620;2023-04-07T09:53:06;17.60;;;8.90;;
69005;SDS011;56061;51.748;19.620;2023-04-07T09:55:34;19.20;;;11.00;;
69005;SDS011;56061;51.748;19.620;2023-04-07T09:58:03;14.40;;;7.70;;
69005;SDS011;56061;51.748;19.620;2023-04-07T10:00:31;17.80;;;9.30;;
69005;SDS011;56061;51.748;19.620;2023-04-07T10:02:58;14.40;;;8.40;;
69005;SDS011;56061;51.748;19.620;2023-04-07T10:05:26;12.40;;;6.50;;
69005;SDS011;56061;51.748;19.620;2023-04-07T10:07:53;14.40;;;8.40;;
69005;SDS011;56061;51.748;19.620;2023-04-07T10:10:20;14.90;;;8.30;;
69005;SDS011;56061;51.748;19.620;2023-04-07T10:12:49;14.20;;;8.20;;
69005;SDS011;56061;51.748;19.620;2023-04-07T10:15:19;17.80;;;9.30;;
69005;SDS011;56061;51.748;19.620;2023-04-07T10:17:46;17.00;;;8.80;;
69005;SDS011;56061;51.748;19.620;2023-04-07T10:20:16;14.90;;;8.50;;
69005;SDS011;56061;51.748;19.620;2023-04-07T10:22:50;14.20;;;7.80;;
69005;SDS011;56061;51.748;19.620;2023-04-07T10:25:22;11.80;;;6.70;;
69005;SDS011;56061;51.748;19.620;2023-04-07T10:27:52;12.50;;;7.10;;
69005;SDS011;56061;51.748;19.620;2023-04-07T10:30:26;13.00;;;7.40;;
69005;SDS011;56061;51.748;19.620;2023-04-07T10:32:57;14.20;;;7.00;;
69005;SDS011;56061;51.748;19.620;2023-04-07T10:35:25;15.40;;;8.60;;
69005;SDS011;56061;51.748;19.620;2023-04-07T10:40:34;17.30;;;8.70;;
69005;SDS011;56061;51.748;19.620;2023-04-07T10:43:02;15.30;;;7.90;;
69005;SDS011;56061;51.748;19.620;2023-04-07T10:45:56;16.20;;;8.90;;
69005;SDS011;56061;51.748;19.620;2023-04-07T10:48:25;14.00;;;7.00;;
69005;SDS011;56061;51.748;19.620;2023-04-07T10:53:33;16.10;;;9.10;;
69005;SDS011;56061;51.748;19.620;2023-04-07T10:56:00;16.80;;;8.90;;
69005;SDS011;56061;51.748;19.620;2023-04-07T10:58:33;17.90;;;10.20;;
69005;SDS011;56061;51.748;19.620;2023-04-07T11:03:31;17.60;;;9.50;;
69005;SDS011;56061;51.748;19.620;2023-04-07T11:06:08;17.40;;;9.70;;
69005;SDS011;56061;51.748;19.620;2023-04-07T11:08:38;16.70;;;8.50;;
69005;SDS011;56061;51.748;19.620;2023-04-07T11:11:14;16.10;;;9.60;;
69005;SDS011;56061;51.748;19.620;2023-04-07T11:13:46;17.40;;;9.40;;
69005;SDS011;56061;51.748;19.620;2023-04-07T11:16:17;18.30;;;10.00;;
69005;SDS011;56061;51.748;19.620;2023-04-07T11:18:46;19.50;;;10.30;;
69005;SDS011;56061;51.748;19.620;2023-04-07T11:21:17;18.70;;;10.40;;
69005;SDS011;56061;51.748;19.620;2023-04-07T11:23:46;15.10;;;8.10;;
69005;SDS011;56061;51.748;19.620;2023-04-07T11:26:14;20.30;;;10.60;;
69005;SDS011;56061;51.748;19.620;2023-04-07T11:28:45;18.60;;;10.30;;
69005;SDS011;56061;51.748;19.620;2023-04-07T11:31:27;15.60;;;8.30;;
69005;SDS011;56061;51.748;19.620;2023-04-07T11:33:58;22.40;;;11.30;;
69005;SDS011;56061;51.748;19.620;2023-04-07T11:36:37;19.30;;;10.00;;
69005;SDS011;56061;51.748;19.620;2023-04-07T11:39:17;20.40;;;10.60;;
69005;SDS011;56061;51.748;19.620;2023-04-07T11:41:48;23.40;;;12.00;;
69005;SDS011;56061;51.748;19.620;2023-04-07T11:44:16;26.50;;;13.10;;
69005;SDS011;56061;51.748;19.620;2023-04-07T11:46:56;23.40;;;12.00;;
69005;SDS011;56061;51.748;19.620;2023-04-07T11:49:27;23.00;;;12.50;;
69005;SDS011;56061;51.748;19.620;2023-04-07T11:52:00;21.60;;;11.30;;
69005;SDS011;56061;51.748;19.620;2023-04-07T11:54:43;23.60;;;12.00;;
69005;SDS011;56061;51.748;19.620;2023-04-07T11:57:27;28.70;;;15.30;;
69005;SDS011;56061;51.748;19.620;2023-04-07T12:00:07;27.10;;;14.10;;
69005;SDS011;56061;51.748;19.620;2023-04-07T12:02:36;26.20;;;14.70;;
69005;SDS011;56061;51.748;19.620;2023-04-07T12:05:04;27.60;;;14.90;;
69005;SDS011;56061;51.748;19.620;2023-04-07T12:07:31;29.70;;;13.90;;
69005;SDS011;56061;51.748;19.620;2023-04-07T12:10:17;21.70;;;11.80;;
69005;SDS011;56061;51.748;19.620;2023-04-07T12:12:47;26.30;;;14.30;;
69005;SDS011;56061;51.748;19.620;2023-04-07T12:15:14;26.70;;;13.80;;
69005;SDS011;56061;51.748;19.620;2023-04-07T12:17:45;26.50;;;15.00;;
69005;SDS011;56061;51.748;19.620;2023-04-07T12:20:14;31.30;;;17.10;;
69005;SDS011;56061;51.748;19.620;2023-04-07T12:22:41;40.30;;;19.40;;
69005;SDS011;56061;51.748;19.620;2023-04-07T12:25:08;38.90;;;20.40;;
69005;SDS011;56061;51.748;19.620;2023-04-07T12:27:34;30.50;;;16.90;;
69005;SDS011;56061;51.748;19.620;2023-04-07T12:30:09;39.40;;;22.90;;
69005;SDS011;56061;51.748;19.620;2023-04-07T12:32:36;33.40;;;18.70;;
69005;SDS011;56061;51.748;19.620;2023-04-07T12:35:04;34.10;;;19.70;;
69005;SDS011;56061;51.748;19.620;2023-04-07T12:37:31;29.30;;;14.90;;
69005;SDS011;56061;51.748;19.620;2023-04-07T12:39:58;32.90;;;18.70;;
69005;SDS011;56061;51.748;19.620;2023-04-07T12:42:25;32.30;;;18.40;;
69005;SDS011;56061;51.748;19.620;2023-04-07T12:44:52;30.20;;;17.90;;
69005;SDS011;56061;51.748;19.620;2023-04-07T12:47:18;26.20;;;15.10;;
69005;SDS011;56061;51.748;19.620;2023-04-07T12:49:46;23.30;;;13.70;;
69005;SDS011;56061;51.748;19.620;2023-04-07T12:52:15;18.80;;;11.30;;
69005;SDS011;56061;51.748;19.620;2023-04-07T12:54:42;18.50;;;11.40;;
69005;SDS011;56061;51.748;19.620;2023-04-07T12:57:09;20.90;;;12.00;;
69005;SDS011;56061;51.748;19.620;2023-04-07T12:59:36;18.60;;;10.20;;
69005;SDS011;56061;51.748;19.620;2023-04-07T13:02:03;22.00;;;13.90;;
69005;SDS011;56061;51.748;19.620;2023-04-07T13:04:30;20.70;;;12.90;;
69005;SDS011;56061;51.748;19.620;2023-04-07T13:06:56;19.90;;;12.10;;
69005;SDS011;56061;51.748;19.620;2023-04-07T13:09:23;23.50;;;13.30;;
69005;SDS011;56061;51.748;19.620;2023-04-07T13:11:50;23.90;;;13.20;;
69005;SDS011;56061;51.748;19.620;2023-04-07T13:14:17;26.00;;;14.10;;
69005;SDS011;56061;51.748;19.620;2023-04-07T13:16:43;28.30;;;16.20;;
69005;SDS011;56061;51.748;19.620;2023-04-07T13:19:10;21.90;;;12.40;;
69005;SDS011;56061;51.748;19.620;2023-04-07T13:21:36;24.50;;;14.20;;
69005;SDS011;56061;51.748;19.620;2023-04-07T13:24:06;23.70;;;13.60;;
69005;SDS011;56061;51.748;19.620;2023-04-07T13:26:33;20.20;;;11.70;;
69005;SDS011;56061;51.748;19.620;2023-04-07T13:28:59;20.60;;;11.90;;
69005;SDS011;56061;51.748;19.620;2023-04-07T13:31:26;22.80;;;13.60;;
69005;SDS011;56061;51.748;19.620;2023-04-07T13:33:53;19.90;;;10.70;;
69005;SDS011;56061;51.748;19.620;2023-04-07T13:36:20;18.50;;;11.20;;
69005;SDS011;56061;51.748;19.620;2023-04-07T13:38:48;21.90;;;12.90;;
69005;SDS011;56061;51.748;19.620;2023-04-07T13:41:15;25.20;;;13.30;;
69005;SDS011;56061;51.748;19.620;2023-04-07T13:43:41;25.00;;;13.60;;
69005;SDS011;56061;51.748;19.620;2023-04-07T13:46:11;25.10;;;14.70;;
69005;SDS011;56061;51.748;19.620;2023-04-07T13:48:53;23.60;;;13.20;;
69005;SDS011;56061;51.748;19.620;2023-04-07T13:51:20;21.60;;;12.60;;
69005;SDS011;56061;51.748;19.620;2023-04-07T13:53:47;25.90;;;15.20;;
69005;SDS011;56061;51.748;19.620;2023-04-07T13:56:14;23.90;;;15.20;;
69005;SDS011;56061;51.748;19.620;2023-04-07T13:58:40;26.10;;;14.60;;
69005;SDS011;56061;51.748;19.620;2023-04-07T14:01:07;24.90;;;15.00;;
69005;SDS011;56061;51.748;19.620;2023-04-07T14:03:34;22.40;;;13.80;;
69005;SDS011;56061;51.748;19.620;2023-04-07T14:06:01;26.70;;;14.30;;
69005;SDS011;56061;51.748;19.620;2023-04-07T14:08:28;26.10;;;14.80;;
69005;SDS011;56061;51.748;19.620;2023-04-07T14:10:54;23.70;;;14.10;;
69005;SDS011;56061;51.748;19.620;2023-04-07T14:13:21;23.00;;;13.90;;
69005;SDS011;56061;51.748;19.620;2023-04-07T14:15:49;23.10;;;13.70;;
69005;SDS011;56061;51.748;19.620;2023-04-07T14:18:23;25.40;;;14.50;;
69005;SDS011;56061;51.748;19.620;2023-04-07T14:20:49;22.50;;;13.40;;
69005;SDS011;56061;51.748;19.620;2023-04-07T14:23:16;18.80;;;11.10;;
69005;SDS011;56061;51.748;19.620;2023-04-07T14:26:01;24.30;;;14.10;;
69005;SDS011;56061;51.748;19.620;2023-04-07T14:28:28;22.10;;;13.30;;
69005;SDS011;56061;51.748;19.620;2023-04-07T14:30:55;19.80;;;12.30;;
69005;SDS011;56061;51.748;19.620;2023-04-07T14:33:21;22.30;;;14.00;;
69005;SDS011;56061;51.748;19.620;2023-04-07T14:35:48;23.20;;;13.50;;
69005;SDS011;56061;51.748;19.620;2023-04-07T14:38:15;23.70;;;13.90;;
69005;SDS011;56061;51.748;19.620;2023-04-07T14:40:41;24.50;;;14.20;;
69005;SDS011;56061;51.748;19.620;2023-04-07T14:43:11;23.60;;;15.00;;
69005;SDS011;56061;51.748;19.620;2023-04-07T14:45:38;22.10;;;13.50;;
69005;SDS011;56061;51.748;19.620;2023-04-07T14:48:05;17.60;;;11.60;;